Auburn, Missouri
Current Conditions -  °F | °C
As of 9:54 PM on Saturday 20 Dec 2014 (Local Time) from KSET Reporting Station
Overcast Overcast  
Wind Chill: 34°   Ceiling: 3100
Heat Index: 39°   Visibility: 9mi
Dew Point: 35°   Wind: 7mph
Humidity: 86%   Direction: 120°ESE
Pressure: 30.24"   Gusts: NA
Location:  39.1646°N, 90.8436°W
Report Text: KSET 210354Z AUTO 12006KT 9SM OVC031 04/02 A3024 RMK AO2 SLP242 T00390017
Loading
Personal Weather Stations






























Interactive Weather Map New forecast layout! Learn more

10-Day Weather Forecast

Advertisements
Track Severe Weather on mobile